createdAt,value
2022-12-07T00:01:26.929Z,3.50
2022-12-07T00:03:58.107Z,3.50
2022-12-07T00:06:25.388Z,3.50
2022-12-07T00:08:54.919Z,3.50
2022-12-07T00:11:23.824Z,3.50
2022-12-07T00:13:55.924Z,3.50
2022-12-07T00:16:26.130Z,3.50
2022-12-07T00:18:53.461Z,3.50
2022-12-07T00:21:27.089Z,3.50
2022-12-07T00:23:57.601Z,3.50
2022-12-07T00:26:27.621Z,3.40
2022-12-07T00:28:56.983Z,3.40
2022-12-07T00:31:29.190Z,3.40
2022-12-07T00:33:56.792Z,3.40
2022-12-07T00:36:27.165Z,3.40
2022-12-07T00:38:56.074Z,3.40
2022-12-07T00:41:25.402Z,3.40
2022-12-07T00:43:52.927Z,3.40
2022-12-07T00:46:21.588Z,3.30
2022-12-07T00:48:49.747Z,3.30
2022-12-07T00:51:19.726Z,3.20
2022-12-07T00:53:47.198Z,3.20
2022-12-07T00:56:17.118Z,3.20
2022-12-07T00:58:44.416Z,3.20
2022-12-07T01:01:12.349Z,3.20
2022-12-07T01:03:40.296Z,3.20
2022-12-07T01:06:07.836Z,3.20
2022-12-07T01:08:35.175Z,3.20
2022-12-07T01:11:08.589Z,3.20
2022-12-07T01:13:36.824Z,3.20
2022-12-07T01:16:06.964Z,3.20
2022-12-07T01:18:36.363Z,3.20
2022-12-07T01:21:14.715Z,3.20
2022-12-07T01:23:42.464Z,3.20
2022-12-07T01:26:12.987Z,3.20
2022-12-07T01:28:40.228Z,3.20
2022-12-07T01:31:18.492Z,3.20
2022-12-07T01:33:48.382Z,3.10
2022-12-07T01:36:22.244Z,3.10
2022-12-07T01:38:52.604Z,3.10
2022-12-07T01:41:21.623Z,3.10
2022-12-07T01:44:07.116Z,3.10
2022-12-07T01:46:34.454Z,3.10
2022-12-07T01:49:02.410Z,3.10
2022-12-07T01:51:30.217Z,3.10
2022-12-07T01:53:57.521Z,3.10
2022-12-07T01:56:27.161Z,3.10
2022-12-07T01:58:55.939Z,3.10
2022-12-07T02:01:23.661Z,3.10
2022-12-07T02:03:50.772Z,3.00
2022-12-07T02:06:22.060Z,3.00
2022-12-07T02:08:49.780Z,3.00
2022-12-07T02:11:17.558Z,3.00
2022-12-07T02:13:46.702Z,3.00
2022-12-07T02:16:34.378Z,3.00
2022-12-07T02:19:22.775Z,3.00
2022-12-07T02:21:55.735Z,3.00
2022-12-07T02:24:32.132Z,3.00
2022-12-07T02:27:26.979Z,3.00
2022-12-07T02:30:13.681Z,2.90
2022-12-07T02:32:59.722Z,2.90
2022-12-07T02:35:34.731Z,2.90
2022-12-07T02:38:22.201Z,2.80
2022-12-07T02:41:13.921Z,2.80
2022-12-07T02:43:54.697Z,2.80
2022-12-07T02:46:29.901Z,2.80
2022-12-07T02:49:00.354Z,2.80
2022-12-07T02:51:34.045Z,2.80
2022-12-07T02:54:01.444Z,2.80
2022-12-07T02:56:46.868Z,2.80
2022-12-07T02:59:23.024Z,2.70
2022-12-07T03:01:55.676Z,2.70
2022-12-07T03:04:34.748Z,2.80
2022-12-07T03:07:12.283Z,2.70
2022-12-07T03:09:53.965Z,2.70
2022-12-07T03:12:28.648Z,2.70
2022-12-07T03:15:07.917Z,2.70
2022-12-07T03:17:38.754Z,2.60
2022-12-07T03:20:08.740Z,2.60
2022-12-07T03:22:38.746Z,2.60
2022-12-07T03:25:10.426Z,2.60
2022-12-07T03:27:45.768Z,2.60
2022-12-07T03:30:18.272Z,2.60
2022-12-07T03:32:51.845Z,2.60
2022-12-07T03:35:26.062Z,2.60
2022-12-07T03:37:58.221Z,2.60
2022-12-07T03:40:34.140Z,2.60
2022-12-07T03:43:02.765Z,2.60
2022-12-07T03:45:40.364Z,2.60
2022-12-07T03:48:33.486Z,2.50
2022-12-07T03:51:31.275Z,2.50
2022-12-07T03:54:07.048Z,2.50
2022-12-07T03:56:37.543Z,2.50
2022-12-07T03:59:04.948Z,2.50
2022-12-07T04:01:33.041Z,2.50
2022-12-07T04:04:00.063Z,2.50
2022-12-07T04:06:27.322Z,2.50
2022-12-07T04:08:54.272Z,2.50
2022-12-07T04:11:21.549Z,2.50
2022-12-07T04:14:06.997Z,2.50
2022-12-07T04:16:36.360Z,2.50
2022-12-07T04:19:06.598Z,2.50
2022-12-07T04:21:33.962Z,2.40
2022-12-07T04:24:00.931Z,2.50
2022-12-07T04:26:28.168Z,2.50
2022-12-07T04:28:55.116Z,2.40
2022-12-07T04:31:22.456Z,2.40
2022-12-07T04:33:49.647Z,2.40
2022-12-07T04:36:17.016Z,2.40
2022-12-07T04:38:44.085Z,2.40
2022-12-07T04:41:11.349Z,2.40
2022-12-07T04:43:38.461Z,2.40
2022-12-07T04:46:05.869Z,2.40
2022-12-07T04:48:32.807Z,2.40
2022-12-07T04:51:00.020Z,2.40
2022-12-07T04:53:27.014Z,2.40
2022-12-07T04:55:54.270Z,2.40
2022-12-07T04:58:21.198Z,2.40
2022-12-07T05:00:48.479Z,2.30
2022-12-07T05:03:15.496Z,2.30
2022-12-07T05:05:42.847Z,2.30
2022-12-07T05:08:09.959Z,2.30
2022-12-07T05:10:37.215Z,2.30
2022-12-07T05:13:04.204Z,2.30
2022-12-07T05:15:31.449Z,2.30
2022-12-07T05:17:58.442Z,2.20
2022-12-07T05:20:25.684Z,2.20
2022-12-07T05:22:52.689Z,2.20
2022-12-07T05:25:19.890Z,2.20
2022-12-07T05:27:47.274Z,2.20
2022-12-07T05:30:14.579Z,2.20
2022-12-07T05:32:41.513Z,2.20
2022-12-07T05:35:09.145Z,2.20
2022-12-07T05:37:36.056Z,2.20
2022-12-07T05:40:04.317Z,2.20
2022-12-07T05:42:31.451Z,2.20
2022-12-07T05:44:58.801Z,2.20
2022-12-07T05:47:25.854Z,2.20
2022-12-07T05:49:53.145Z,2.20
2022-12-07T05:52:20.174Z,2.20
2022-12-07T05:54:47.454Z,2.20
2022-12-07T05:57:14.712Z,2.20
2022-12-07T05:59:41.936Z,2.20
2022-12-07T06:02:11.518Z,2.20
2022-12-07T06:04:43.079Z,2.20
2022-12-07T06:07:10.948Z,2.30
2022-12-07T06:09:38.473Z,2.30
2022-12-07T06:12:25.207Z,2.30
2022-12-07T06:14:52.610Z,2.30
2022-12-07T06:17:19.704Z,2.30
2022-12-07T06:19:47.319Z,2.30
2022-12-07T06:22:14.452Z,2.30
2022-12-07T06:24:41.773Z,2.30
2022-12-07T06:27:09.593Z,2.30
2022-12-07T06:29:37.496Z,2.40
2022-12-07T06:32:05.960Z,2.40
2022-12-07T06:34:33.428Z,2.40
2022-12-07T06:37:00.446Z,2.40
2022-12-07T06:39:29.886Z,2.50
2022-12-07T06:41:58.321Z,2.50
2022-12-07T06:44:26.047Z,2.60
2022-12-07T06:47:06.734Z,2.60
2022-12-07T06:49:34.225Z,2.60
2022-12-07T06:52:01.215Z,2.70
2022-12-07T06:54:31.226Z,2.70
2022-12-07T06:56:58.363Z,2.70
2022-12-07T06:59:25.634Z,2.80
2022-12-07T07:01:52.838Z,2.80
2022-12-07T07:04:20.145Z,2.80
2022-12-07T07:06:48.155Z,2.90
2022-12-07T07:09:15.464Z,3.00
2022-12-07T07:11:43.588Z,3.00
2022-12-07T07:14:10.923Z,3.00
2022-12-07T07:16:37.965Z,3.00
2022-12-07T07:19:05.288Z,3.00
2022-12-07T07:21:32.240Z,3.00
2022-12-07T07:23:59.509Z,3.00
2022-12-07T07:26:26.565Z,3.00
2022-12-07T07:28:53.798Z,3.00
2022-12-07T07:31:20.990Z,2.90
2022-12-07T07:33:48.359Z,3.00
2022-12-07T07:36:15.351Z,3.00
2022-12-07T07:38:42.714Z,3.00
2022-12-07T07:41:09.676Z,3.10
2022-12-07T07:43:36.912Z,3.10
2022-12-07T07:46:04.062Z,3.10
2022-12-07T07:48:31.391Z,3.10
2022-12-07T07:50:58.363Z,3.20
2022-12-07T07:53:26.352Z,3.20
2022-12-07T07:55:54.930Z,3.20
2022-12-07T07:58:22.617Z,3.20
2022-12-07T08:00:49.742Z,3.20
2022-12-07T08:03:17.631Z,3.20
2022-12-07T08:05:44.617Z,3.20
2022-12-07T08:08:12.088Z,3.20
2022-12-07T08:10:40.137Z,3.20
2022-12-07T08:13:14.661Z,3.20
2022-12-07T08:15:44.638Z,3.20
2022-12-07T08:18:13.071Z,3.10
2022-12-07T08:20:41.050Z,3.10
2022-12-07T08:23:09.632Z,3.10
2022-12-07T08:25:36.864Z,3.10
2022-12-07T08:28:04.531Z,3.10
2022-12-07T08:30:32.289Z,3.10
2022-12-07T08:32:59.633Z,3.00
2022-12-07T08:35:27.121Z,3.10
2022-12-07T08:37:54.460Z,3.10
2022-12-07T08:40:22.168Z,3.10
2022-12-07T08:42:50.636Z,3.10
2022-12-07T08:45:23.380Z,3.10
2022-12-07T08:48:08.772Z,3.00
2022-12-07T08:50:38.339Z,3.00
2022-12-07T08:53:07.554Z,3.00
2022-12-07T08:55:35.568Z,3.00
2022-12-07T08:58:04.148Z,3.00
2022-12-07T09:00:31.163Z,3.00
2022-12-07T09:02:58.482Z,3.00
2022-12-07T09:05:25.564Z,3.00
2022-12-07T09:07:58.719Z,3.00
2022-12-07T09:10:25.814Z,3.00
2022-12-07T09:12:54.525Z,3.00
2022-12-07T09:15:21.923Z,3.10
2022-12-07T09:17:49.262Z,3.00
2022-12-07T09:20:16.280Z,3.10
2022-12-07T09:22:43.519Z,3.10
2022-12-07T09:25:10.794Z,3.10
2022-12-07T09:27:39.469Z,3.10
2022-12-07T09:30:09.177Z,3.20
2022-12-07T09:32:36.590Z,3.20
2022-12-07T09:35:04.011Z,3.10
2022-12-07T09:37:36.037Z,3.10
2022-12-07T09:40:05.141Z,3.00
2022-12-07T09:42:42.445Z,3.10
2022-12-07T09:45:16.843Z,3.10
2022-12-07T09:47:44.295Z,3.10
2022-12-07T09:50:24.063Z,3.10
2022-12-07T09:52:52.059Z,3.10
2022-12-07T09:55:30.605Z,3.20
2022-12-07T09:57:58.999Z,3.20
2022-12-07T10:00:26.530Z,3.10
2022-12-07T10:03:03.445Z,3.20
2022-12-07T10:05:40.792Z,3.10
2022-12-07T10:08:11.832Z,3.20
2022-12-07T10:10:40.864Z,3.10
2022-12-07T10:13:14.573Z,3.20
2022-12-07T10:15:59.786Z,3.20
2022-12-07T10:18:42.302Z,3.20
2022-12-07T10:21:10.023Z,3.30
2022-12-07T10:23:40.168Z,3.30
2022-12-07T10:26:28.866Z,3.40
2022-12-07T10:28:59.292Z,3.40
2022-12-07T10:31:26.804Z,3.40
2022-12-07T10:34:01.108Z,3.50
2022-12-07T10:36:39.831Z,3.50
2022-12-07T10:39:20.821Z,3.60
2022-12-07T10:41:57.818Z,3.70
2022-12-07T10:44:28.742Z,3.70
2022-12-07T10:47:21.116Z,3.80
2022-12-07T10:50:11.371Z,3.70
2022-12-07T10:52:47.738Z,3.70
2022-12-07T10:55:36.609Z,3.70
2022-12-07T10:58:32.520Z,3.70
2022-12-07T11:01:22.510Z,3.70
2022-12-07T11:04:13.575Z,3.80
2022-12-07T11:07:01.576Z,3.90
2022-12-07T11:10:08.321Z,3.90
2022-12-07T11:12:36.609Z,3.90
2022-12-07T11:15:23.417Z,3.90
2022-12-07T11:18:23.061Z,3.80
2022-12-07T11:21:13.184Z,3.80
2022-12-07T11:23:46.312Z,3.70
2022-12-07T11:26:33.875Z,3.80
2022-12-07T11:29:28.501Z,3.70
2022-12-07T11:32:10.757Z,3.70
2022-12-07T11:34:50.140Z,3.70
2022-12-07T11:37:26.861Z,3.70
2022-12-07T11:40:00.873Z,3.80
2022-12-07T11:42:38.756Z,3.90
2022-12-07T11:45:47.510Z,3.90
2022-12-07T11:48:24.181Z,4.10
2022-12-07T11:50:55.218Z,4.10
2022-12-07T11:53:32.881Z,4.10
2022-12-07T11:56:15.970Z,4.10
2022-12-07T11:58:49.881Z,4.10
2022-12-07T12:01:26.304Z,4.00
2022-12-07T12:03:59.277Z,4.00
2022-12-07T12:06:26.605Z,4.00
2022-12-07T12:15:39.522Z,3.90
2022-12-07T12:18:32.602Z,3.80
2022-12-07T12:21:07.630Z,3.80
2022-12-07T12:23:55.687Z,3.70
2022-12-07T12:26:26.349Z,3.70
2022-12-07T12:29:04.411Z,3.70
2022-12-07T12:31:40.074Z,3.70
2022-12-07T12:34:38.691Z,3.70
2022-12-07T12:37:33.783Z,3.70
2022-12-07T12:40:16.168Z,3.80
2022-12-07T12:42:53.001Z,3.70
2022-12-07T12:45:35.493Z,3.70
2022-12-07T12:48:24.570Z,3.70
2022-12-07T12:51:30.161Z,3.70
2022-12-07T12:54:06.577Z,3.70
2022-12-07T12:56:52.094Z,3.60
2022-12-07T12:59:22.314Z,3.50
2022-12-07T13:01:56.580Z,3.40
2022-12-07T13:04:33.711Z,3.50
2022-12-07T13:07:01.223Z,3.40
2022-12-07T13:09:30.649Z,3.40
2022-12-07T13:12:03.464Z,3.40
2022-12-07T13:14:52.398Z,3.40
2022-12-07T13:17:34.867Z,3.40
2022-12-07T13:20:14.156Z,3.40
2022-12-07T13:22:47.786Z,3.40
2022-12-07T13:25:49.047Z,3.30
2022-12-07T13:28:18.947Z,3.30
2022-12-07T13:31:05.667Z,3.30
2022-12-07T13:33:36.469Z,3.30
2022-12-07T13:36:04.118Z,3.30
2022-12-07T13:38:34.752Z,3.30
2022-12-07T13:41:12.466Z,3.20
2022-12-07T13:43:53.627Z,3.20
2022-12-07T13:46:28.461Z,3.10
2022-12-07T13:48:57.659Z,3.10
2022-12-07T13:51:30.660Z,3.10
2022-12-07T13:54:16.145Z,3.10
2022-12-07T13:56:49.232Z,3.20
2022-12-07T13:59:21.920Z,3.10
2022-12-07T14:01:51.779Z,3.10
2022-12-07T14:04:34.533Z,3.10
2022-12-07T14:07:27.979Z,3.10
2022-12-07T14:10:00.586Z,3.00
2022-12-07T14:12:30.152Z,2.90
2022-12-07T14:15:01.373Z,2.90
2022-12-07T14:17:29.945Z,2.80
2022-12-07T14:19:59.235Z,2.80
2022-12-07T14:22:36.325Z,2.70
2022-12-07T14:25:23.868Z,2.70
2022-12-07T14:27:59.605Z,2.70
2022-12-07T14:30:32.800Z,2.70
2022-12-07T14:33:02.898Z,2.60
2022-12-07T14:35:33.722Z,2.60
2022-12-07T14:38:01.062Z,2.60
2022-12-07T14:40:30.911Z,2.60
2022-12-07T14:43:12.320Z,2.60
2022-12-07T14:45:40.750Z,2.50
2022-12-07T14:53:55.199Z,2.60
2022-12-07T14:56:25.880Z,2.70
2022-12-07T14:58:55.133Z,2.70
2022-12-07T15:01:22.508Z,2.70
2022-12-07T15:03:49.589Z,2.70
2022-12-07T15:06:18.802Z,2.70
2022-12-07T15:08:46.616Z,2.80
2022-12-07T15:11:18.454Z,2.80
2022-12-07T15:14:04.271Z,2.80
2022-12-07T15:16:52.454Z,2.80
2022-12-07T15:19:28.568Z,2.80
2022-12-07T15:21:59.336Z,2.80
2022-12-07T15:24:27.175Z,2.90
2022-12-07T15:26:54.698Z,2.90
2022-12-07T15:29:23.611Z,2.90
2022-12-07T15:31:57.062Z,2.80
2022-12-07T15:34:39.966Z,2.80
2022-12-07T15:37:10.299Z,2.80
2022-12-07T15:39:38.060Z,2.80
2022-12-07T15:42:07.614Z,2.80
2022-12-07T15:44:53.439Z,2.80
2022-12-07T15:47:21.560Z,2.80
2022-12-07T15:49:48.582Z,2.80
2022-12-07T15:52:16.875Z,2.80
2022-12-07T15:54:44.019Z,2.80
2022-12-07T15:57:11.245Z,2.70
2022-12-07T15:59:38.263Z,2.70
2022-12-07T16:02:05.593Z,2.70
2022-12-07T16:04:32.751Z,2.70
2022-12-07T16:07:00.086Z,2.60
2022-12-07T16:09:30.124Z,2.60
2022-12-07T16:11:57.428Z,2.60
2022-12-07T16:14:27.667Z,2.60
2022-12-07T16:16:56.177Z,2.60
2022-12-07T16:19:23.173Z,2.60
2022-12-07T16:21:50.520Z,2.60
2022-12-07T16:24:19.775Z,2.50
2022-12-07T16:26:50.098Z,2.50
2022-12-07T16:29:20.382Z,2.50
2022-12-07T16:31:48.845Z,2.50
2022-12-07T16:34:16.134Z,2.50
2022-12-07T16:39:30.633Z,2.50
2022-12-07T16:41:58.031Z,2.50
2022-12-07T16:44:25.342Z,2.50
2022-12-07T16:46:52.716Z,2.50
2022-12-07T16:49:20.524Z,2.50
2022-12-07T16:52:08.627Z,2.50
2022-12-07T16:54:38.331Z,2.50
2022-12-07T16:57:05.797Z,2.50
2022-12-07T16:59:33.058Z,2.50
2022-12-07T17:02:00.425Z,2.50
2022-12-07T17:04:27.884Z,2.40
2022-12-07T17:06:59.393Z,2.40
2022-12-07T17:09:26.809Z,2.40
2022-12-07T17:11:54.179Z,2.40
2022-12-07T17:14:40.126Z,2.40
2022-12-07T17:17:07.719Z,2.50
2022-12-07T17:19:34.728Z,2.50
2022-12-07T17:22:02.070Z,2.50
2022-12-07T17:24:29.308Z,2.50
2022-12-07T17:26:56.751Z,2.50
2022-12-07T17:29:23.846Z,2.50
2022-12-07T17:31:52.080Z,2.50
2022-12-07T17:34:19.448Z,2.50
2022-12-07T17:36:47.841Z,2.50
2022-12-07T17:39:17.786Z,2.50
2022-12-07T17:42:04.197Z,2.50
2022-12-07T17:44:31.342Z,2.60
2022-12-07T17:46:59.637Z,2.50
2022-12-07T17:49:27.548Z,2.50
2022-12-07T17:52:14.252Z,2.50
2022-12-07T17:54:41.540Z,2.50
2022-12-07T17:57:09.006Z,2.60
2022-12-07T17:59:36.314Z,2.60
2022-12-07T18:02:04.442Z,2.60
2022-12-07T18:04:33.252Z,2.60
2022-12-07T18:07:00.609Z,2.50
2022-12-07T18:09:27.668Z,2.50
2022-12-07T18:11:54.951Z,2.40
2022-12-07T18:14:22.138Z,2.40
2022-12-07T18:16:52.215Z,2.40
2022-12-07T18:19:19.404Z,2.50
2022-12-07T18:21:47.264Z,2.50
2022-12-07T18:24:16.579Z,2.50
2022-12-07T18:26:47.770Z,2.50
2022-12-07T18:29:16.758Z,2.40
2022-12-07T18:31:45.233Z,2.40
2022-12-07T18:34:14.257Z,2.40
2022-12-07T18:36:51.385Z,2.40
2022-12-07T18:39:19.504Z,2.40
2022-12-07T18:41:47.207Z,2.40
2022-12-07T18:44:14.486Z,2.40
2022-12-07T18:46:42.700Z,2.40
2022-12-07T18:49:13.126Z,2.50
2022-12-07T18:51:41.621Z,2.50
2022-12-07T18:54:11.826Z,2.50
2022-12-07T18:56:41.753Z,2.40
2022-12-07T18:59:32.637Z,2.50
2022-12-07T19:02:00.066Z,2.40
2022-12-07T19:04:27.316Z,2.40
2022-12-07T19:06:54.779Z,2.40
2022-12-07T19:09:22.107Z,2.40
2022-12-07T19:11:49.562Z,2.30
2022-12-07T19:14:37.704Z,2.30
2022-12-07T19:17:11.872Z,2.30
2022-12-07T19:19:45.164Z,2.30
2022-12-07T19:22:18.194Z,2.30
2022-12-07T19:24:48.274Z,2.30
2022-12-07T19:27:17.074Z,2.20
2022-12-07T19:29:44.998Z,2.20
2022-12-07T19:32:12.942Z,2.20
2022-12-07T19:34:42.084Z,2.20
2022-12-07T19:37:11.697Z,2.10
2022-12-07T19:39:40.063Z,2.10
2022-12-07T19:42:08.217Z,2.10
2022-12-07T19:44:35.234Z,2.10
2022-12-07T19:47:05.196Z,2.20
2022-12-07T19:49:36.912Z,2.20
2022-12-07T19:52:07.098Z,2.20
2022-12-07T19:54:35.026Z,2.20
2022-12-07T19:57:04.577Z,2.20
2022-12-07T19:59:32.171Z,2.20
2022-12-07T20:01:59.994Z,2.20
2022-12-07T20:04:30.299Z,2.20
2022-12-07T20:06:59.462Z,2.20
2022-12-07T20:09:27.063Z,2.20
2022-12-07T20:12:12.992Z,2.20
2022-12-07T20:14:39.944Z,2.20
2022-12-07T20:17:07.632Z,2.10
2022-12-07T20:19:38.732Z,2.20
2022-12-07T20:22:06.460Z,2.20
2022-12-07T20:24:37.478Z,2.20
2022-12-07T20:27:06.056Z,2.20
2022-12-07T20:29:33.300Z,2.10
2022-12-07T20:32:00.895Z,2.10
2022-12-07T20:34:28.048Z,2.10
2022-12-07T20:36:55.897Z,2.10
2022-12-07T20:39:23.730Z,2.10
2022-12-07T20:42:10.064Z,2.00
2022-12-07T20:44:37.213Z,2.00
2022-12-07T20:47:06.048Z,2.00
2022-12-07T20:49:33.499Z,1.90
2022-12-07T20:52:01.014Z,1.90
2022-12-07T20:54:28.726Z,1.90
2022-12-07T20:56:56.053Z,1.70
2022-12-07T20:59:23.155Z,1.60
2022-12-07T21:01:50.612Z,1.50
2022-12-07T21:04:20.892Z,1.40
2022-12-07T21:06:48.729Z,1.30
2022-12-07T21:09:15.799Z,1.30
2022-12-07T21:11:43.086Z,1.30
2022-12-07T21:14:10.367Z,1.40
2022-12-07T21:16:38.189Z,1.40
2022-12-07T21:19:05.709Z,1.40
2022-12-07T21:21:34.001Z,1.30
2022-12-07T21:24:03.531Z,1.30
2022-12-07T21:26:35.864Z,1.20
2022-12-07T21:29:05.675Z,1.20
2022-12-07T21:31:35.320Z,1.20
2022-12-07T21:34:04.359Z,1.30
2022-12-07T21:36:32.633Z,1.30
2022-12-07T21:38:59.907Z,1.20
2022-12-07T21:41:35.438Z,1.20
2022-12-07T21:44:06.734Z,1.20
2022-12-07T21:46:34.931Z,1.20
2022-12-07T21:49:05.081Z,1.10
2022-12-07T21:51:32.964Z,1.00
2022-12-07T21:54:01.783Z,1.00
2022-12-07T21:56:32.182Z,1.00
2022-12-07T21:59:21.123Z,1.10
2022-12-07T22:01:49.227Z,1.10
2022-12-07T22:04:24.942Z,1.10
2022-12-07T22:06:53.447Z,1.10
2022-12-07T22:09:23.489Z,1.10
2022-12-07T22:11:51.121Z,1.10
2022-12-07T22:14:37.146Z,1.20
2022-12-07T22:17:04.693Z,1.20
2022-12-07T22:19:31.772Z,1.20
2022-12-07T22:21:59.125Z,1.30
2022-12-07T22:24:26.291Z,1.30
2022-12-07T22:26:53.542Z,1.30
2022-12-07T22:29:21.075Z,1.30
2022-12-07T22:31:53.539Z,1.30
2022-12-07T22:34:21.245Z,1.30
2022-12-07T22:36:49.877Z,1.40
2022-12-07T22:39:17.189Z,1.40
2022-12-07T22:41:44.647Z,1.40
2022-12-07T22:44:11.686Z,1.40
2022-12-07T22:46:39.550Z,1.40
2022-12-07T22:49:07.347Z,1.40
2022-12-07T22:51:40.225Z,1.40
2022-12-07T22:54:17.848Z,1.40
2022-12-07T22:56:45.514Z,1.40
2022-12-07T22:59:13.699Z,1.30
2022-12-07T23:01:41.099Z,1.40
2022-12-07T23:04:09.777Z,1.40
2022-12-07T23:06:37.254Z,1.30
2022-12-07T23:09:07.638Z,1.30
2022-12-07T23:11:56.113Z,1.30
2022-12-07T23:14:32.433Z,1.30
2022-12-07T23:17:00.301Z,1.30
2022-12-07T23:19:28.261Z,1.30
2022-12-07T23:21:55.600Z,1.30
2022-12-07T23:24:22.654Z,1.30
2022-12-07T23:26:50.415Z,1.40
2022-12-07T23:29:18.290Z,1.40
2022-12-07T23:31:49.741Z,1.40
2022-12-07T23:34:17.149Z,1.40
2022-12-07T23:36:44.748Z,1.40
2022-12-07T23:39:12.052Z,1.40
2022-12-07T23:41:39.589Z,1.40
2022-12-07T23:44:07.052Z,1.40
2022-12-07T23:46:34.518Z,1.50
2022-12-07T23:49:03.448Z,1.40
2022-12-07T23:51:31.300Z,1.40
2022-12-07T23:53:59.170Z,1.40
2022-12-07T23:56:30.418Z,1.40
2022-12-07T23:58:58.347Z,1.40
